createdAt,value
2023-04-24T00:00:26.162Z,72.40
2023-04-24T00:02:58.298Z,72.50
2023-04-24T00:05:27.199Z,72.50
2023-04-24T00:07:56.331Z,72.50
2023-04-24T00:10:24.715Z,72.50
2023-04-24T00:12:54.422Z,72.70
2023-04-24T00:15:22.786Z,72.70
2023-04-24T00:17:51.184Z,72.80
2023-04-24T00:20:20.023Z,72.90
2023-04-24T00:22:48.567Z,73.10
2023-04-24T00:25:16.865Z,73.10
2023-04-24T00:27:45.192Z,73.30
2023-04-24T00:30:15.235Z,73.60
2023-04-24T00:32:43.585Z,73.70
2023-04-24T00:35:12.297Z,73.80
2023-04-24T00:37:40.700Z,73.90
2023-04-24T00:40:10.076Z,74.00
2023-04-24T00:42:38.686Z,74.00
2023-04-24T00:45:08.361Z,74.10
2023-04-24T00:47:38.286Z,74.30
2023-04-24T00:50:08.198Z,74.60
2023-04-24T00:52:37.096Z,74.70
2023-04-24T00:55:06.707Z,74.90
2023-04-24T00:57:35.440Z,75.80
2023-04-24T01:00:04.460Z,75.70
2023-04-24T01:02:35.787Z,75.90
2023-04-24T01:05:06.302Z,76.10
2023-04-24T01:07:34.663Z,76.10
2023-04-24T01:10:03.243Z,76.30
2023-04-24T01:12:31.553Z,76.30
2023-04-24T01:15:00.344Z,76.40
2023-04-24T01:17:28.827Z,77.70
2023-04-24T01:19:57.802Z,76.60
2023-04-24T01:22:27.720Z,76.70
2023-04-24T01:24:56.392Z,76.70
2023-04-24T01:27:24.889Z,76.70
2023-04-24T01:29:53.365Z,77.10
2023-04-24T01:32:22.109Z,77.30
2023-04-24T01:34:51.058Z,77.20
2023-04-24T01:37:19.453Z,77.30
2023-04-24T01:39:49.233Z,77.50
2023-04-24T01:42:18.359Z,77.80
2023-04-24T01:44:47.215Z,78.00
2023-04-24T01:47:16.208Z,77.90
2023-04-24T01:49:44.796Z,77.90
2023-04-24T01:52:13.425Z,77.90
2023-04-24T01:54:41.758Z,78.00
2023-04-24T01:57:11.689Z,77.90
2023-04-24T01:59:40.104Z,78.10
2023-04-24T02:02:08.580Z,78.90
2023-04-24T02:04:37.083Z,78.10
2023-04-24T02:07:05.425Z,78.20
2023-04-24T02:09:33.785Z,78.20
2023-04-24T02:12:02.582Z,78.20
2023-04-24T02:14:32.405Z,78.20
2023-04-24T02:17:01.741Z,78.40
2023-04-24T02:19:30.056Z,78.60
2023-04-24T02:21:58.411Z,78.40
2023-04-24T02:24:26.683Z,78.70
2023-04-24T02:26:55.058Z,78.70
2023-04-24T02:29:23.809Z,78.80
2023-04-24T02:31:53.582Z,79.10
2023-04-24T02:34:21.885Z,79.00
2023-04-24T02:36:50.198Z,79.10
2023-04-24T02:39:19.785Z,79.10
2023-04-24T02:41:48.285Z,79.10
2023-04-24T02:44:16.679Z,79.60
2023-04-24T02:46:45.269Z,79.60
2023-04-24T02:49:14.924Z,79.60
2023-04-24T02:51:43.272Z,79.60
2023-04-24T02:54:12.039Z,80.00
2023-04-24T02:56:40.392Z,80.50
2023-04-24T02:59:08.671Z,81.30
2023-04-24T03:01:36.981Z,81.90
2023-04-24T03:04:05.426Z,82.20
2023-04-24T03:06:36.572Z,82.00
2023-04-24T03:09:05.864Z,82.60
2023-04-24T03:11:34.230Z,82.50
2023-04-24T03:14:02.638Z,82.40
2023-04-24T03:16:31.000Z,82.30
2023-04-24T03:18:59.381Z,82.20
2023-04-24T03:21:28.469Z,82.20
2023-04-24T03:23:58.188Z,82.10
2023-04-24T03:26:26.540Z,81.90
2023-04-24T03:28:54.857Z,81.90
2023-04-24T03:31:23.325Z,81.80
2023-04-24T03:33:52.199Z,82.70
2023-04-24T03:36:20.620Z,82.00
2023-04-24T03:38:48.896Z,82.00
2023-04-24T03:41:18.594Z,81.80
2023-04-24T03:43:46.966Z,81.60
2023-04-24T03:46:16.329Z,81.60
2023-04-24T03:48:44.769Z,81.70
2023-04-24T03:51:13.094Z,81.70
2023-04-24T03:53:41.410Z,81.80
2023-04-24T03:56:09.851Z,81.80
2023-04-24T03:58:39.514Z,81.60
2023-04-24T04:01:08.652Z,82.20
2023-04-24T04:03:37.167Z,81.90
2023-04-24T04:06:05.819Z,81.90
2023-04-24T04:08:34.095Z,82.50
2023-04-24T04:11:04.643Z,82.20
2023-04-24T04:13:33.605Z,82.10
2023-04-24T04:16:03.333Z,82.10
2023-04-24T04:18:31.631Z,82.10
2023-04-24T04:20:59.936Z,82.10
2023-04-24T04:23:29.217Z,82.20
2023-04-24T04:25:57.576Z,82.50
2023-04-24T04:28:25.945Z,82.40
2023-04-24T04:30:54.862Z,82.60
2023-04-24T04:33:24.670Z,83.00
2023-04-24T04:35:53.696Z,83.10
2023-04-24T04:38:22.359Z,83.00
2023-04-24T04:40:50.921Z,83.10
2023-04-24T04:43:19.441Z,83.00
2023-04-24T04:45:49.460Z,83.10
2023-04-24T04:48:18.615Z,82.90
2023-04-24T04:50:48.278Z,82.80
2023-04-24T04:53:16.743Z,82.70
2023-04-24T04:55:45.152Z,83.40
2023-04-24T04:58:13.521Z,82.50
2023-04-24T05:00:42.597Z,82.50
2023-04-24T05:03:20.807Z,82.50
2023-04-24T05:05:51.552Z,82.40
2023-04-24T05:08:26.989Z,82.50
2023-04-24T05:10:56.223Z,82.70
2023-04-24T05:13:38.210Z,82.70
2023-04-24T05:16:07.991Z,82.70
2023-04-24T05:18:36.510Z,83.10
2023-04-24T05:21:06.303Z,82.90
2023-04-24T05:23:34.708Z,82.90
2023-04-24T05:26:04.581Z,82.90
2023-04-24T05:28:34.571Z,82.90
2023-04-24T05:31:03.423Z,82.90
2023-04-24T05:33:31.776Z,82.80
2023-04-24T05:36:00.204Z,82.70
2023-04-24T05:38:29.868Z,82.60
2023-04-24T05:40:58.162Z,82.50
2023-04-24T05:43:26.446Z,82.30
2023-04-24T05:45:54.952Z,82.30
2023-04-24T05:48:24.537Z,82.30
2023-04-24T05:50:53.668Z,82.20
2023-04-24T05:53:22.130Z,82.10
2023-04-24T05:55:51.890Z,82.00
2023-04-24T05:58:20.196Z,81.90
2023-04-24T06:00:49.069Z,81.90
2023-04-24T06:03:17.544Z,81.50
2023-04-24T06:05:46.063Z,80.40
2023-04-24T06:08:14.531Z,79.70
2023-04-24T06:10:42.991Z,80.00
2023-04-24T06:13:13.188Z,79.40
2023-04-24T06:15:41.867Z,79.70
2023-04-24T06:18:11.190Z,79.70
2023-04-24T06:20:39.577Z,79.60
2023-04-24T06:23:07.882Z,78.40
2023-04-24T06:25:36.615Z,78.20
2023-04-24T06:28:04.975Z,78.10
2023-04-24T06:30:34.650Z,77.90
2023-04-24T06:33:12.772Z,77.90
2023-04-24T06:35:47.704Z,77.20
2023-04-24T06:38:17.522Z,76.30
2023-04-24T06:40:45.977Z,76.30
2023-04-24T06:43:14.266Z,75.90
2023-04-24T06:45:44.983Z,75.90
2023-04-24T06:48:13.675Z,75.80
2023-04-24T06:50:42.095Z,74.90
2023-04-24T06:53:12.173Z,74.10
2023-04-24T06:55:40.526Z,73.70
2023-04-24T06:58:09.117Z,74.00
2023-04-24T07:00:37.422Z,73.90
2023-04-24T07:03:07.439Z,73.30
2023-04-24T07:05:36.432Z,72.50
2023-04-24T07:08:07.814Z,71.70
2023-04-24T07:10:36.819Z,71.20
2023-04-24T07:13:05.230Z,70.80
2023-04-24T07:15:33.800Z,70.80
2023-04-24T07:18:05.452Z,70.90
2023-04-24T07:20:35.750Z,70.80
2023-04-24T07:23:04.356Z,70.40
2023-04-24T07:25:32.963Z,70.00
2023-04-24T07:28:01.336Z,69.70
2023-04-24T07:30:30.570Z,68.80
2023-04-24T07:32:58.912Z,69.20
2023-04-24T07:35:27.611Z,69.10
2023-04-24T07:37:57.679Z,68.30
2023-04-24T07:40:26.284Z,68.90
2023-04-24T07:42:54.661Z,69.20
2023-04-24T07:45:24.179Z,69.30
2023-04-24T07:47:53.510Z,69.40
2023-04-24T07:50:22.164Z,68.50
2023-04-24T07:52:50.480Z,68.10
2023-04-24T07:55:23.219Z,68.20
2023-04-24T07:57:53.245Z,68.60
2023-04-24T08:00:22.189Z,68.20
2023-04-24T08:02:50.932Z,67.80
2023-04-24T08:05:19.637Z,67.60
2023-04-24T08:07:49.836Z,66.60
2023-04-24T08:10:19.654Z,66.80
2023-04-24T08:12:47.950Z,66.90
2023-04-24T08:15:16.618Z,66.70
2023-04-24T08:17:44.966Z,66.10
2023-04-24T08:20:15.508Z,66.10
2023-04-24T08:22:44.290Z,65.90
2023-04-24T08:25:13.358Z,64.90
2023-04-24T08:27:46.102Z,65.90
2023-04-24T08:30:14.769Z,65.20
2023-04-24T08:32:43.273Z,65.40
2023-04-24T08:35:11.708Z,65.20
2023-04-24T08:37:43.991Z,64.30
2023-04-24T08:40:15.965Z,63.70
2023-04-24T08:42:46.692Z,64.20
2023-04-24T08:45:15.821Z,64.80
2023-04-24T08:47:45.545Z,64.20
2023-04-24T08:50:14.025Z,63.00
2023-04-24T08:52:43.922Z,62.90
2023-04-24T08:55:12.425Z,63.10
2023-04-24T08:57:41.560Z,63.40
2023-04-24T09:00:12.697Z,63.50
2023-04-24T09:02:45.063Z,63.20
2023-04-24T09:05:14.602Z,62.70
2023-04-24T09:07:45.486Z,62.20
2023-04-24T09:10:14.931Z,59.90
2023-04-24T09:12:44.168Z,59.70
2023-04-24T09:15:14.750Z,59.10
2023-04-24T09:17:43.072Z,58.70
2023-04-24T09:20:11.756Z,58.40
2023-04-24T09:22:40.197Z,59.00
2023-04-24T09:25:10.530Z,59.60
2023-04-24T09:27:39.011Z,59.50
2023-04-24T09:30:09.240Z,60.00
2023-04-24T09:32:53.580Z,60.00
2023-04-24T09:35:22.031Z,59.70
2023-04-24T09:37:51.012Z,59.10
2023-04-24T09:40:20.837Z,59.30
2023-04-24T09:42:54.777Z,59.20
2023-04-24T09:45:23.525Z,59.20
2023-04-24T09:47:56.137Z,57.70
2023-04-24T09:50:25.165Z,57.00
2023-04-24T09:53:00.613Z,53.00
2023-04-24T09:55:29.109Z,54.50
2023-04-24T09:57:59.516Z,54.90
2023-04-24T10:00:29.293Z,54.40
2023-04-24T10:03:00.788Z,55.30
2023-04-24T10:05:30.976Z,55.40
2023-04-24T10:08:00.332Z,55.30
2023-04-24T10:10:28.917Z,57.30
2023-04-24T10:12:57.622Z,55.50
2023-04-24T10:15:28.281Z,54.70
2023-04-24T10:18:00.074Z,55.40
2023-04-24T10:20:31.655Z,51.20
2023-04-24T10:23:04.579Z,52.30
2023-04-24T10:25:34.295Z,52.60
2023-04-24T10:28:03.933Z,51.70
2023-04-24T10:30:36.048Z,51.50
2023-04-24T10:33:07.018Z,51.50
2023-04-24T10:35:38.164Z,51.90
2023-04-24T10:38:10.189Z,51.50
2023-04-24T10:40:39.033Z,51.90
2023-04-24T10:43:09.390Z,51.80
2023-04-24T10:45:37.919Z,52.30
2023-04-24T10:48:12.256Z,52.80
2023-04-24T10:50:48.798Z,52.50
2023-04-24T10:53:19.624Z,52.60
2023-04-24T10:55:50.320Z,53.00
2023-04-24T10:58:19.528Z,52.50
2023-04-24T11:00:58.935Z,52.30
2023-04-24T11:03:30.612Z,52.60
2023-04-24T11:06:01.746Z,52.10
2023-04-24T11:08:32.507Z,51.30
2023-04-24T11:11:03.581Z,51.70
2023-04-24T11:14:05.323Z,50.70
2023-04-24T11:16:35.580Z,50.70
2023-04-24T11:19:07.425Z,50.40
2023-04-24T11:21:44.874Z,50.30
2023-04-24T11:24:33.195Z,50.70
2023-04-24T11:27:09.149Z,51.30
2023-04-24T11:29:51.321Z,51.40
2023-04-24T11:32:28.317Z,51.00
2023-04-24T11:35:00.114Z,51.10
2023-04-24T11:37:30.355Z,51.30
2023-04-24T11:40:00.647Z,50.20
2023-04-24T11:42:31.128Z,51.70
2023-04-24T11:45:01.366Z,50.70
2023-04-24T11:47:32.037Z,50.30
2023-04-24T11:50:03.585Z,50.00
2023-04-24T11:52:32.763Z,49.90
2023-04-24T11:55:02.552Z,49.30
2023-04-24T11:57:34.816Z,50.60
2023-04-24T12:00:04.583Z,50.10
2023-04-24T12:02:34.230Z,49.90
2023-04-24T12:05:05.016Z,48.90
2023-04-24T12:07:43.827Z,50.00
2023-04-24T12:10:12.341Z,50.40
2023-04-24T12:12:40.756Z,50.40
2023-04-24T12:15:11.096Z,50.10
2023-04-24T12:17:43.992Z,49.80
2023-04-24T12:20:15.561Z,48.40
2023-04-24T12:22:48.575Z,49.00
2023-04-24T12:25:19.345Z,48.90
2023-04-24T12:27:48.496Z,49.40
2023-04-24T12:30:18.508Z,49.40
2023-04-24T12:32:48.957Z,48.70
2023-04-24T12:35:22.775Z,48.30
2023-04-24T12:37:51.554Z,49.40
2023-04-24T12:40:21.047Z,48.30
2023-04-24T12:42:51.146Z,47.80
2023-04-24T12:45:20.971Z,48.30
2023-04-24T12:47:51.164Z,48.30
2023-04-24T12:50:20.892Z,47.30
2023-04-24T12:52:49.245Z,47.30
2023-04-24T12:55:17.607Z,48.40
2023-04-24T12:57:45.901Z,49.20
2023-04-24T13:00:15.562Z,49.40
2023-04-24T13:02:44.854Z,49.10
2023-04-24T13:05:14.882Z,48.60
2023-04-24T13:07:44.657Z,48.10
2023-04-24T13:10:14.360Z,48.60
2023-04-24T13:12:46.421Z,48.80
2023-04-24T13:15:14.922Z,49.40
2023-04-24T13:17:43.440Z,49.30
2023-04-24T13:20:12.497Z,49.90
2023-04-24T13:22:40.835Z,50.00
2023-04-24T13:25:11.259Z,48.50
2023-04-24T13:27:41.195Z,48.30
2023-04-24T13:30:10.835Z,48.40
2023-04-24T13:32:39.325Z,48.70
2023-04-24T13:35:08.204Z,48.10
2023-04-24T13:37:36.530Z,48.40
2023-04-24T13:40:08.213Z,48.30
2023-04-24T13:42:39.484Z,48.70
2023-04-24T13:45:17.792Z,49.10
2023-04-24T13:47:53.451Z,48.40
2023-04-24T13:50:21.888Z,48.30
2023-04-24T13:52:50.611Z,48.60
2023-04-24T13:55:19.071Z,48.60
2023-04-24T13:57:48.782Z,48.40
2023-04-24T14:00:18.124Z,48.70
2023-04-24T14:02:46.644Z,48.90
2023-04-24T14:05:16.264Z,49.10
2023-04-24T14:07:44.652Z,49.30
2023-04-24T14:10:13.131Z,49.30
2023-04-24T14:12:41.886Z,49.70
2023-04-24T14:15:14.410Z,49.70
2023-04-24T14:17:43.324Z,49.90
2023-04-24T14:20:12.418Z,50.10
2023-04-24T14:22:40.802Z,50.30
2023-04-24T14:25:09.891Z,50.50
2023-04-24T14:27:38.201Z,50.30
2023-04-24T14:30:07.934Z,50.00
2023-04-24T14:32:37.708Z,50.30
2023-04-24T14:35:07.172Z,49.40
2023-04-24T14:37:35.727Z,50.10
2023-04-24T14:40:15.819Z,49.60
2023-04-24T14:42:52.739Z,49.10
2023-04-24T14:45:21.457Z,49.40
2023-04-24T14:47:55.184Z,49.70
2023-04-24T14:50:24.816Z,49.50
2023-04-24T14:52:53.367Z,48.70
2023-04-24T14:55:21.811Z,48.60
2023-04-24T14:57:50.260Z,48.70
2023-04-24T15:00:19.716Z,48.40
2023-04-24T15:02:48.300Z,47.80
2023-04-24T15:05:18.450Z,48.20
2023-04-24T15:07:47.505Z,48.60
2023-04-24T15:10:15.860Z,48.30
2023-04-24T15:12:44.228Z,47.70
2023-04-24T15:15:12.814Z,47.90
2023-04-24T15:17:41.088Z,48.40
2023-04-24T15:20:10.579Z,48.50
2023-04-24T15:22:40.362Z,48.60
2023-04-24T15:25:09.661Z,48.90
2023-04-24T15:27:45.454Z,49.30
2023-04-24T15:30:14.957Z,49.20
2023-04-24T15:32:43.360Z,49.30
2023-04-24T15:35:12.626Z,48.80
2023-04-24T15:37:43.126Z,49.30
2023-04-24T15:40:14.281Z,49.60
2023-04-24T15:42:43.255Z,50.00
2023-04-24T15:45:12.767Z,50.40
2023-04-24T15:47:41.337Z,50.70
2023-04-24T15:50:14.725Z,51.10
2023-04-24T15:52:45.211Z,51.20
2023-04-24T15:55:14.136Z,51.30
2023-04-24T15:57:42.590Z,51.60
2023-04-24T16:00:18.634Z,51.80
2023-04-24T16:02:47.450Z,52.40
2023-04-24T16:05:15.982Z,52.50
2023-04-24T16:07:49.110Z,52.90
2023-04-24T16:10:17.588Z,53.20
2023-04-24T16:12:46.050Z,53.40
2023-04-24T16:15:14.429Z,53.60
2023-04-24T16:17:44.658Z,53.40
2023-04-24T16:20:13.930Z,53.70
2023-04-24T16:22:42.950Z,54.00
2023-04-24T16:25:13.526Z,54.20
2023-04-24T16:27:42.097Z,54.50
2023-04-24T16:30:11.516Z,54.70
2023-04-24T16:32:39.916Z,54.80
2023-04-24T16:35:08.758Z,55.00
2023-04-24T16:37:37.459Z,55.20
2023-04-24T16:40:10.948Z,55.50
2023-04-24T16:42:41.000Z,55.70
2023-04-24T16:45:10.668Z,55.80
2023-04-24T16:47:39.086Z,56.30
2023-04-24T16:50:08.286Z,56.50
2023-04-24T16:52:37.088Z,56.60
2023-04-24T16:55:06.050Z,56.70
2023-04-24T16:57:34.822Z,56.60
2023-04-24T17:00:05.314Z,56.60
2023-04-24T17:02:33.814Z,56.70
2023-04-24T17:05:03.111Z,56.80
2023-04-24T17:07:31.985Z,56.80
2023-04-24T17:10:00.520Z,57.00
2023-04-24T17:12:28.871Z,57.10
2023-04-24T17:14:57.209Z,57.10
2023-04-24T17:17:27.107Z,57.10
2023-04-24T17:19:55.486Z,57.20
2023-04-24T17:22:23.813Z,57.30
2023-04-24T17:24:52.096Z,57.40
2023-04-24T17:27:20.579Z,57.50
2023-04-24T17:29:49.855Z,57.60
2023-04-24T17:32:18.332Z,57.70
2023-04-24T17:34:49.173Z,57.80
2023-04-24T17:37:19.836Z,57.90
2023-04-24T17:39:48.211Z,58.00
2023-04-24T17:42:16.666Z,58.30
2023-04-24T17:44:45.111Z,58.50
2023-04-24T17:47:13.513Z,58.70
2023-04-24T17:49:43.019Z,58.90
2023-04-24T17:52:13.812Z,59.00
2023-04-24T17:54:42.157Z,59.20
2023-04-24T17:57:10.709Z,59.40
2023-04-24T17:59:39.156Z,59.40
2023-04-24T18:02:07.775Z,59.60
2023-04-24T18:04:36.526Z,59.80
2023-04-24T18:07:05.022Z,60.00
2023-04-24T18:09:34.761Z,60.10
2023-04-24T18:12:03.095Z,60.20
2023-04-24T18:14:31.573Z,60.40
2023-04-24T18:16:59.941Z,60.50
2023-04-24T18:19:28.299Z,60.60
2023-04-24T18:21:58.120Z,60.70
2023-04-24T18:24:26.815Z,60.80
2023-04-24T18:26:57.678Z,61.00
2023-04-24T18:29:26.130Z,61.00
2023-04-24T18:31:54.764Z,61.10
2023-04-24T18:34:23.237Z,61.30
2023-04-24T18:36:51.707Z,61.50
2023-04-24T18:39:21.816Z,61.60
2023-04-24T18:41:51.413Z,61.80
2023-04-24T18:44:21.333Z,61.90
2023-04-24T18:46:49.782Z,62.10
2023-04-24T18:49:18.109Z,62.10
2023-04-24T18:51:53.699Z,62.30
2023-04-24T18:54:22.920Z,62.40
2023-04-24T18:56:51.620Z,62.50
2023-04-24T18:59:21.712Z,62.80
2023-04-24T19:01:50.201Z,62.90
2023-04-24T19:04:20.802Z,63.10
2023-04-24T19:06:49.367Z,63.20
2023-04-24T19:09:17.810Z,63.30
2023-04-24T19:11:46.245Z,63.40
2023-04-24T19:14:16.203Z,63.50
2023-04-24T19:16:46.187Z,63.60
2023-04-24T19:19:14.665Z,63.80
2023-04-24T19:21:43.249Z,64.00
2023-04-24T19:24:12.033Z,64.40
2023-04-24T19:26:40.665Z,65.00
2023-04-24T19:29:09.034Z,65.20
2023-04-24T19:31:37.378Z,66.50
2023-04-24T19:34:07.856Z,65.60
2023-04-24T19:36:37.216Z,66.20
2023-04-24T19:39:05.715Z,66.60
2023-04-24T19:41:34.046Z,66.60
2023-04-24T19:44:02.425Z,66.70
2023-04-24T19:46:30.806Z,67.10
2023-04-24T19:48:59.192Z,67.20
2023-04-24T19:51:28.904Z,67.40
2023-04-24T19:53:57.549Z,67.60
2023-04-24T19:56:26.086Z,67.60
2023-04-24T19:58:54.489Z,67.60
2023-04-24T20:01:22.809Z,67.70
2023-04-24T20:03:51.816Z,68.00
2023-04-24T20:06:20.238Z,68.10
2023-04-24T20:08:50.276Z,68.30
2023-04-24T20:11:18.861Z,68.50
2023-04-24T20:13:47.208Z,68.50
2023-04-24T20:16:15.546Z,69.50
2023-04-24T20:18:44.793Z,69.50
2023-04-24T20:21:13.368Z,69.40
2023-04-24T20:23:41.851Z,69.70
2023-04-24T20:26:11.593Z,69.90
2023-04-24T20:28:39.925Z,70.50
2023-04-24T20:31:08.333Z,70.20
2023-04-24T20:33:40.757Z,70.80
2023-04-24T20:36:10.401Z,70.80
2023-04-24T20:38:39.067Z,70.80
2023-04-24T20:41:08.939Z,71.00
2023-04-24T20:43:38.838Z,70.80
2023-04-24T20:46:07.430Z,71.10
2023-04-24T20:48:36.293Z,71.00
2023-04-24T20:51:04.826Z,71.30
2023-04-24T20:53:33.281Z,71.40
2023-04-24T20:56:01.692Z,71.60
2023-04-24T20:58:30.094Z,71.70
2023-04-24T21:01:00.180Z,71.60
2023-04-24T21:03:28.744Z,71.90
2023-04-24T21:05:57.200Z,72.00
2023-04-24T21:08:25.618Z,72.60
2023-04-24T21:10:53.979Z,73.00
2023-04-24T21:13:22.331Z,73.20
2023-04-24T21:15:50.978Z,73.40
2023-04-24T21:18:20.837Z,73.80
2023-04-24T21:20:50.023Z,73.80
2023-04-24T21:23:18.475Z,74.50
2023-04-24T21:25:46.936Z,74.20
2023-04-24T21:28:15.601Z,74.50
2023-04-24T21:30:44.113Z,75.00
2023-04-24T21:33:13.730Z,74.80
2023-04-24T21:35:43.443Z,75.40
2023-04-24T21:38:11.993Z,75.90
2023-04-24T21:40:40.380Z,76.40
2023-04-24T21:43:09.923Z,76.70
2023-04-24T21:45:38.599Z,77.20
2023-04-24T21:48:07.216Z,76.90
2023-04-24T21:50:35.750Z,77.00
2023-04-24T21:53:05.586Z,77.10
2023-04-24T21:55:33.953Z,77.00
2023-04-24T21:58:02.517Z,77.50
2023-04-24T22:00:30.918Z,77.30
2023-04-24T22:02:59.688Z,77.70
2023-04-24T22:05:28.217Z,77.80
2023-04-24T22:07:59.312Z,78.10
2023-04-24T22:10:29.533Z,78.30
2023-04-24T22:12:58.147Z,79.20
2023-04-24T22:15:26.613Z,79.30
2023-04-24T22:17:55.235Z,79.70
2023-04-24T22:20:23.833Z,80.70
2023-04-24T22:22:52.602Z,80.20
2023-04-24T22:25:21.141Z,80.00
2023-04-24T22:27:50.983Z,80.40
2023-04-24T22:30:19.482Z,80.80
2023-04-24T22:32:47.842Z,80.30
2023-04-24T22:35:16.572Z,80.30
2023-04-24T22:37:44.955Z,80.30
2023-04-24T22:40:13.667Z,80.50
2023-04-24T22:42:42.022Z,80.80
2023-04-24T22:45:13.511Z,80.90
2023-04-24T22:47:42.160Z,80.80
2023-04-24T22:50:11.835Z,80.50
2023-04-24T22:52:41.149Z,80.20
2023-04-24T22:55:10.784Z,80.10
2023-04-24T22:57:39.362Z,80.00
2023-04-24T23:00:11.345Z,80.00
2023-04-24T23:02:42.495Z,79.70
2023-04-24T23:05:12.003Z,79.60
2023-04-24T23:07:40.934Z,79.40
2023-04-24T23:10:10.004Z,79.30
2023-04-24T23:12:39.027Z,79.20
2023-04-24T23:15:08.523Z,79.00
2023-04-24T23:17:36.937Z,79.00
2023-04-24T23:20:07.973Z,78.80
2023-04-24T23:22:36.509Z,79.00
2023-04-24T23:25:05.140Z,79.30
2023-04-24T23:27:33.469Z,79.20
2023-04-24T23:30:01.831Z,79.10
2023-04-24T23:32:30.207Z,79.30
2023-04-24T23:34:58.636Z,80.20
2023-04-24T23:37:28.573Z,80.10
2023-04-24T23:39:56.958Z,80.00
2023-04-24T23:42:25.380Z,80.20
2023-04-24T23:44:53.708Z,81.10
2023-04-24T23:47:22.122Z,81.10
2023-04-24T23:49:50.512Z,81.00
2023-04-24T23:52:18.922Z,81.20
2023-04-24T23:54:48.750Z,81.40
2023-04-24T23:57:20.019Z,82.20
2023-04-24T23:59:48.401Z,81.80
